Time,TemperatureF,DewpointF,PressureIn,WindDirection,WindDirectionDegrees,WindSpeedMPH,WindSpeedGustMPH,Humidity,HourlyPrecipIn,Conditions,Clouds,dailyrainin,SoftwareType,DateUTC
2013-12-28 00:01:00,33.3,28.1,29.99,North,0,0.0,0.0,81,0.00,,,0.00,WUHU216HW,2013-12-28 06:01:00,
2013-12-28 00:06:00,32.8,27.5,29.98,North,0,0.0,0.0,81,0.00,,,0.00,WUHU216HW,2013-12-28 06:06:00,
2013-12-28 00:11:00,32.6,27.5,29.98,North,0,0.0,0.0,81,0.00,,,0.00,WUHU216HW,2013-12-28 06:11:00,
2013-12-28 00:16:00,32.4,27.3,29.97,North,0,0.0,0.0,81,0.00,,,0.00,WUHU216HW,2013-12-28 06:16:00,
2013-12-28 00:21:00,32.4,27.5,29.97,North,0,0.0,0.0,82,0.00,,,0.00,WUHU216HW,2013-12-28 06:21:00,
2013-12-28 00:26:00,32.0,27.2,29.98,North,0,0.0,0.0,82,0.00,,,0.00,WUHU216HW,2013-12-28 06:26:00,
2013-12-28 00:31:00,31.7,26.8,29.98,North,0,0.0,0.0,82,0.00,,,0.00,WUHU216HW,2013-12-28 06:31:00,
2013-12-28 00:36:00,30.8,25.9,29.98,North,0,0.0,0.0,82,0.00,,,0.00,WUHU216HW,2013-12-28 06:36:00,
2013-12-28 00:41:00,30.4,25.9,29.97,North,0,0.0,0.0,83,0.00,,,0.00,WUHU216HW,2013-12-28 06:41:00,
2013-12-28 00:46:00,30.2,25.8,29.97,North,0,0.0,0.0,83,0.00,,,0.00,WUHU216HW,2013-12-28 06:46:00,
2013-12-28 00:51:00,30.1,25.8,29.98,North,0,0.0,0.0,84,0.00,,,0.00,WUHU216HW,2013-12-28 06:51:00,
2013-12-28 00:56:00,29.7,25.5,29.98,North,0,0.0,0.0,84,0.00,,,0.00,WUHU216HW,2013-12-28 06:56:00,
2013-12-28 01:01:00,29.2,24.9,29.98,North,0,0.0,0.0,84,0.00,,,0.00,WUHU216HW,2013-12-28 07:01:00,
2013-12-28 01:06:00,28.4,24.2,29.97,North,0,0.0,0.0,84,0.00,,,0.00,WUHU216HW,2013-12-28 07:06:00,
2013-12-28 01:11:00,27.7,23.2,29.98,North,0,0.0,0.0,83,0.00,,,0.00,WUHU216HW,2013-12-28 07:11:00,
2013-12-28 01:16:00,27.0,22.5,29.98,North,0,0.0,0.0,83,0.00,,,0.00,WUHU216HW,2013-12-28 07:16:00,
2013-12-28 01:21:00,26.3,21.8,29.97,North,0,0.0,0.0,83,0.00,,,0.00,WUHU216HW,2013-12-28 07:21:00,
2013-12-28 01:26:00,25.9,21.7,29.98,North,0,0.0,0.0,84,0.00,,,0.00,WUHU216HW,2013-12-28 07:26:00,
2013-12-28 01:31:00,25.6,21.4,29.98,North,0,0.0,0.0,84,0.00,,,0.00,WUHU216HW,2013-12-28 07:31:00,
2013-12-28 01:36:00,25.0,20.9,29.98,North,0,0.0,0.0,84,0.00,,,0.00,WUHU216HW,2013-12-28 07:36:00,
2013-12-28 01:41:00,24.7,20.8,29.98,North,0,0.0,0.0,85,0.00,,,0.00,WUHU216HW,2013-12-28 07:41:00,
2013-12-28 01:46:00,24.5,20.6,29.97,North,0,0.0,0.0,85,0.00,,,0.00,WUHU216HW,2013-12-28 07:46:00,
2013-12-28 01:51:00,24.1,20.3,29.98,North,0,0.0,0.0,85,0.00,,,0.00,WUHU216HW,2013-12-28 07:51:00,
2013-12-28 01:56:00,23.8,19.9,29.98,North,0,0.0,0.0,85,0.00,,,0.00,WUHU216HW,2013-12-28 07:56:00,
2013-12-28 02:01:00,24.3,21.0,29.99,North,0,0.0,0.0,87,0.00,,,0.00,WUHU216HW,2013-12-28 08:01:00,
2013-12-28 02:06:00,24.8,21.5,29.98,North,0,0.0,0.0,87,0.00,,,0.00,WUHU216HW,2013-12-28 08:06:00,
2013-12-28 02:11:00,25.6,22.5,29.98,North,0,0.0,0.0,88,0.00,,,0.00,WUHU216HW,2013-12-28 08:11:00,
2013-12-28 02:16:00,25.7,22.4,29.98,North,0,0.0,0.0,87,0.00,,,0.00,WUHU216HW,2013-12-28 08:16:00,
2013-12-28 02:21:00,25.6,22.2,29.97,North,0,0.0,0.0,87,0.00,,,0.00,WUHU216HW,2013-12-28 08:21:00,
2013-12-28 02:26:00,25.7,22.7,29.98,North,0,0.0,0.0,88,0.00,,,0.00,WUHU216HW,2013-12-28 08:26:00,
2013-12-28 02:31:00,26.3,23.2,29.97,North,0,0.0,0.0,88,0.00,,,0.00,WUHU216HW,2013-12-28 08:31:00,
2013-12-28 02:36:00,26.3,23.5,29.97,North,0,0.0,0.0,89,0.00,,,0.00,WUHU216HW,2013-12-28 08:36:00,
2013-12-28 02:41:00,26.5,23.4,29.97,North,0,0.0,0.0,88,0.00,,,0.00,WUHU216HW,2013-12-28 08:41:00,
2013-12-28 02:46:00,26.3,23.2,29.97,North,0,0.0,0.0,88,0.00,,,0.00,WUHU216HW,2013-12-28 08:46:00,
2013-12-28 02:51:00,26.3,23.2,29.97,North,0,0.0,0.0,88,0.00,,,0.00,WUHU216HW,2013-12-28 08:51:00,
2013-12-28 02:56:00,26.5,23.7,29.98,North,0,0.0,0.0,89,0.00,,,0.00,WUHU216HW,2013-12-28 08:56:00,
2013-12-28 03:01:00,27.0,24.2,29.99,North,0,0.0,0.0,89,0.00,,,0.00,WUHU216HW,2013-12-28 09:01:00,
2013-12-28 03:06:00,27.0,24.2,29.99,North,0,0.0,0.0,89,0.00,,,0.00,WUHU216HW,2013-12-28 09:06:00,
2013-12-28 03:11:00,26.6,23.9,29.99,North,0,0.0,0.0,89,0.00,,,0.00,WUHU216HW,2013-12-28 09:11:00,
2013-12-28 03:16:00,26.3,23.2,29.98,North,0,0.0,0.0,88,0.00,,,0.00,WUHU216HW,2013-12-28 09:16:00,
2013-12-28 03:21:00,25.9,22.9,29.98,North,0,0.0,0.0,88,0.00,,,0.00,WUHU216HW,2013-12-28 09:21:00,
2013-12-28 03:26:00,25.7,22.7,29.98,North,0,0.0,0.0,88,0.00,,,0.00,WUHU216HW,2013-12-28 09:26:00,
2013-12-28 03:31:00,25.6,22.5,29.98,North,0,0.0,0.0,88,0.00,,,0.00,WUHU216HW,2013-12-28 09:31:00,
2013-12-28 03:36:00,25.6,22.5,29.98,North,0,0.0,0.0,88,0.00,,,0.00,WUHU216HW,2013-12-28 09:36:00,
2013-12-28 03:40:00,25.4,22.3,29.98,North,0,0.0,0.0,88,0.00,,,0.00,WUHU216HW,2013-12-28 09:40:00,
2013-12-28 03:45:00,24.8,21.8,29.98,North,0,0.0,0.0,88,0.00,,,0.00,WUHU216HW,2013-12-28 09:45:00,
2013-12-28 03:50:00,24.3,21.2,29.98,North,0,0.0,0.0,88,0.00,,,0.00,WUHU216HW,2013-12-28 09:50:00,
2013-12-28 03:56:00,23.8,20.7,29.98,North,0,0.0,0.0,88,0.00,,,0.00,WUHU216HW,2013-12-28 09:56:00,
2013-12-28 04:01:00,23.2,20.2,29.97,North,0,0.0,0.0,88,0.00,,,0.00,WUHU216HW,2013-12-28 10:01:00,
2013-12-28 04:06:00,22.9,19.5,29.97,North,0,0.0,0.0,87,0.00,,,0.00,WUHU216HW,2013-12-28 10:06:00,
2013-12-28 04:11:00,22.5,19.2,29.97,North,0,0.0,0.0,87,0.00,,,0.00,WUHU216HW,2013-12-28 10:11:00,
2013-12-28 04:16:00,22.1,18.8,29.97,North,0,0.0,0.0,87,0.00,,,0.00,WUHU216HW,2013-12-28 10:16:00,
2013-12-28 04:20:00,22.0,18.6,29.97,North,0,0.0,0.0,87,0.00,,,0.00,WUHU216HW,2013-12-28 10:20:00,
2013-12-28 04:25:00,21.6,18.3,29.97,North,0,0.0,0.0,87,0.00,,,0.00,WUHU216HW,2013-12-28 10:25:00,
2013-12-28 04:31:00,21.4,18.1,29.97,North,0,0.0,0.0,87,0.00,,,0.00,WUHU216HW,2013-12-28 10:31:00,
2013-12-28 04:35:00,21.4,18.4,29.97,North,0,0.0,0.0,88,0.00,,,0.00,WUHU216HW,2013-12-28 10:35:00,
2013-12-28 04:41:00,22.0,18.9,29.97,North,0,0.0,0.0,88,0.00,,,0.00,WUHU216HW,2013-12-28 10:41:00,
2013-12-28 04:46:00,22.1,19.1,29.97,North,0,0.0,0.0,88,0.00,,,0.00,WUHU216HW,2013-12-28 10:46:00,
2013-12-28 04:51:00,22.0,18.9,29.97,North,0,0.0,0.0,88,0.00,,,0.00,WUHU216HW,2013-12-28 10:51:00,
2013-12-28 04:56:00,21.4,18.1,29.97,North,0,0.0,0.0,87,0.00,,,0.00,WUHU216HW,2013-12-28 10:56:00,
2013-12-28 05:01:00,21.1,18.0,29.96,North,0,0.0,0.0,88,0.00,,,0.00,WUHU216HW,2013-12-28 11:01:00,
2013-12-28 05:02:00,20.9,17.8,29.97,North,0,0.0,0.0,88,0.00,,,0.00,WUHU216HW,2013-12-28 11:02:00,
2013-12-28 05:07:00,21.1,18.0,29.97,North,0,0.0,0.0,88,0.00,,,0.00,WUHU216HW,2013-12-28 11:07:00,
2013-12-28 05:12:00,20.9,17.8,29.96,North,0,0.0,0.0,88,0.00,,,0.00,WUHU216HW,2013-12-28 11:12:00,
2013-12-28 05:17:00,20.7,17.6,29.96,North,0,0.0,0.0,88,0.00,,,0.00,WUHU216HW,2013-12-28 11:17:00,
2013-12-28 05:22:00,20.5,17.5,29.96,North,0,0.0,0.0,88,0.00,,,0.00,WUHU216HW,2013-12-28 11:22:00,
2013-12-28 05:27:00,20.3,17.3,29.96,North,0,0.0,0.0,88,0.00,,,0.00,WUHU216HW,2013-12-28 11:27:00,
2013-12-28 05:32:00,20.2,17.1,29.96,North,0,0.0,0.0,88,0.00,,,0.00,WUHU216HW,2013-12-28 11:32:00,
2013-12-28 05:37:00,20.2,17.1,29.96,North,0,0.0,0.0,88,0.00,,,0.00,WUHU216HW,2013-12-28 11:37:00,
2013-12-28 05:42:00,20.2,17.1,29.96,North,0,0.0,0.0,88,0.00,,,0.00,WUHU216HW,2013-12-28 11:42:00,
2013-12-28 05:46:00,19.8,16.7,29.95,North,0,0.0,0.0,88,0.00,,,0.00,WUHU216HW,2013-12-28 11:46:00,
2013-12-28 05:51:00,19.6,16.6,29.95,North,0,0.0,0.0,88,0.00,,,0.00,WUHU216HW,2013-12-28 11:51:00,
2013-12-28 05:56:00,19.3,16.2,29.95,North,0,0.0,0.0,88,0.00,,,0.00,WUHU216HW,2013-12-28 11:56:00,
2013-12-28 06:01:00,19.6,16.8,29.96,North,0,0.0,0.0,89,0.00,,,0.00,WUHU216HW,2013-12-28 12:01:00,
2013-12-28 06:06:00,20.2,17.4,29.96,North,0,0.0,0.0,89,0.00,,,0.00,WUHU216HW,2013-12-28 12:06:00,
2013-12-28 06:11:00,20.3,17.6,29.96,North,0,0.0,0.0,89,0.00,,,0.00,WUHU216HW,2013-12-28 12:11:00,
2013-12-28 06:16:00,20.9,18.1,29.96,North,0,0.0,0.0,89,0.00,,,0.00,WUHU216HW,2013-12-28 12:16:00,
2013-12-28 06:21:00,22.1,19.6,29.96,North,0,0.0,0.0,90,0.00,,,0.00,WUHU216HW,2013-12-28 12:21:00,
2013-12-28 06:26:00,22.9,20.3,29.96,North,0,0.0,0.0,90,0.00,,,0.00,WUHU216HW,2013-12-28 12:26:00,
2013-12-28 06:31:00,23.2,20.7,29.96,North,0,0.0,0.0,90,0.00,,,0.00,WUHU216HW,2013-12-28 12:31:00,
2013-12-28 06:36:00,23.0,20.5,29.95,North,0,0.0,0.0,90,0.00,,,0.00,WUHU216HW,2013-12-28 12:36:00,
2013-12-28 06:41:00,22.7,20.2,29.95,North,0,0.0,0.0,90,0.00,,,0.00,WUHU216HW,2013-12-28 12:41:00,
2013-12-28 06:46:00,22.3,19.8,29.95,North,0,0.0,0.0,90,0.00,,,0.00,WUHU216HW,2013-12-28 12:46:00,
2013-12-28 06:51:00,22.1,19.6,29.96,North,0,0.0,0.0,90,0.00,,,0.00,WUHU216HW,2013-12-28 12:51:00,
2013-12-28 06:56:00,23.0,20.8,29.96,North,0,0.0,0.0,91,0.00,,,0.00,WUHU216HW,2013-12-28 12:56:00,
2013-12-28 07:01:00,23.8,21.5,29.96,North,0,0.0,0.0,91,0.00,,,0.00,WUHU216HW,2013-12-28 13:01:00,
2013-12-28 07:06:00,24.3,22.1,29.96,North,0,0.0,0.0,91,0.00,,,0.00,WUHU216HW,2013-12-28 13:06:00,
2013-12-28 07:11:00,24.7,22.4,29.96,North,0,0.0,0.0,91,0.00,,,0.00,WUHU216HW,2013-12-28 13:11:00,
2013-12-28 07:16:00,24.8,22.6,29.96,North,0,0.0,0.0,91,0.00,,,0.00,WUHU216HW,2013-12-28 13:16:00,
2013-12-28 07:21:00,24.7,22.4,29.96,North,0,0.0,0.0,91,0.00,,,0.00,WUHU216HW,2013-12-28 13:21:00,
2013-12-28 07:26:00,24.1,21.9,29.96,North,0,0.0,0.0,91,0.00,,,0.00,WUHU216HW,2013-12-28 13:26:00,
2013-12-28 07:31:00,23.9,21.7,29.96,North,0,0.0,0.0,91,0.00,,,0.00,WUHU216HW,2013-12-28 13:31:00,
2013-12-28 07:36:00,23.4,20.9,29.95,North,0,0.0,0.0,90,0.00,,,0.00,WUHU216HW,2013-12-28 13:36:00,
2013-12-28 07:41:00,23.4,20.9,29.95,North,0,0.0,0.0,90,0.00,,,0.00,WUHU216HW,2013-12-28 13:41:00,
2013-12-28 07:46:00,23.6,21.1,29.95,North,0,0.0,0.0,90,0.00,,,0.00,WUHU216HW,2013-12-28 13:46:00,
2013-12-28 07:51:00,23.4,20.9,29.95,North,0,0.0,0.0,90,0.00,,,0.00,WUHU216HW,2013-12-28 13:51:00,
2013-12-28 07:56:00,23.2,20.7,29.94,North,0,0.0,0.0,90,0.00,,,0.00,WUHU216HW,2013-12-28 13:56:00,
2013-12-28 08:01:00,22.9,20.3,29.95,North,0,0.0,0.0,90,0.00,,,0.00,WUHU216HW,2013-12-28 14:01:00,
2013-12-28 08:06:00,22.7,20.2,29.95,North,0,0.0,0.0,90,0.00,,,0.00,WUHU216HW,2013-12-28 14:06:00,
2013-12-28 08:11:00,22.9,20.3,29.94,North,0,0.0,0.0,90,0.00,,,0.00,WUHU216HW,2013-12-28 14:11:00,
2013-12-28 08:16:00,23.4,20.9,29.94,North,0,0.0,0.0,90,0.00,,,0.00,WUHU216HW,2013-12-28 14:16:00,
2013-12-28 08:21:00,23.9,21.4,29.94,North,0,0.0,0.0,90,0.00,,,0.00,WUHU216HW,2013-12-28 14:21:00,
2013-12-28 08:26:00,24.3,21.8,29.94,North,0,0.0,0.0,90,0.00,,,0.00,WUHU216HW,2013-12-28 14:26:00,
2013-12-28 08:31:00,24.8,22.3,29.94,North,0,0.0,0.0,90,0.00,,,0.00,WUHU216HW,2013-12-28 14:31:00,
2013-12-28 08:36:00,25.0,22.8,29.94,North,0,0.0,0.0,91,0.00,,,0.00,WUHU216HW,2013-12-28 14:36:00,
2013-12-28 08:41:00,25.6,23.3,29.94,North,0,0.0,0.0,91,0.00,,,0.00,WUHU216HW,2013-12-28 14:41:00,
2013-12-28 08:46:00,26.1,23.9,29.93,North,0,0.0,0.0,91,0.00,,,0.00,WUHU216HW,2013-12-28 14:46:00,
2013-12-28 08:51:00,26.6,24.7,29.93,North,0,0.0,0.0,92,0.00,,,0.00,WUHU216HW,2013-12-28 14:51:00,
2013-12-28 08:56:00,26.8,24.6,29.93,North,0,0.0,0.0,91,0.00,,,0.00,WUHU216HW,2013-12-28 14:56:00,
2013-12-28 09:01:00,27.0,24.8,29.93,North,0,0.0,0.0,91,0.00,,,0.00,WUHU216HW,2013-12-28 15:01:00,
2013-12-28 09:06:00,27.2,24.9,29.93,North,0,0.0,0.0,91,0.00,,,0.00,WUHU216HW,2013-12-28 15:06:00,
2013-12-28 09:11:00,27.7,25.5,29.93,North,0,0.0,0.0,91,0.00,,,0.00,WUHU216HW,2013-12-28 15:11:00,
2013-12-28 09:16:00,29.2,26.9,29.93,North,0,0.0,0.0,91,0.00,,,0.00,WUHU216HW,2013-12-28 15:16:00,
2013-12-28 09:21:00,31.3,29.1,29.92,North,0,0.0,0.0,91,0.00,,,0.00,WUHU216HW,2013-12-28 15:21:00,
2013-12-28 09:26:00,33.5,31.1,29.92,North,0,0.0,0.0,91,0.00,,,0.00,WUHU216HW,2013-12-28 15:26:00,
2013-12-28 09:31:00,35.5,31.6,29.92,North,0,0.0,0.0,86,0.00,,,0.00,WUHU216HW,2013-12-28 15:31:00,
2013-12-28 09:36:00,37.1,31.5,29.92,North,0,0.0,0.0,80,0.00,,,0.00,WUHU216HW,2013-12-28 15:36:00,
2013-12-28 09:41:00,37.1,30.3,29.92,North,0,0.0,0.0,76,0.00,,,0.00,WUHU216HW,2013-12-28 15:41:00,
2013-12-28 09:46:00,38.0,31.1,29.92,North,0,0.0,0.0,76,0.00,,,0.00,WUHU216HW,2013-12-28 15:46:00,
2013-12-28 09:51:00,39.2,31.6,29.92,North,0,0.0,0.0,74,0.00,,,0.00,WUHU216HW,2013-12-28 15:51:00,
2013-12-28 09:56:00,39.4,31.2,29.92,North,0,0.0,0.0,72,0.00,,,0.00,WUHU216HW,2013-12-28 15:56:00,
2013-12-28 10:01:00,39.4,30.4,29.92,North,0,0.0,0.0,70,0.00,,,0.00,WUHU216HW,2013-12-28 16:01:00,
2013-12-28 10:06:00,39.4,30.8,29.92,North,0,0.0,0.0,71,0.00,,,0.00,WUHU216HW,2013-12-28 16:06:00,
2013-12-28 10:11:00,40.1,31.5,29.91,North,0,0.0,0.0,71,0.00,,,0.00,WUHU216HW,2013-12-28 16:11:00,
2013-12-28 10:16:00,40.9,31.5,29.91,North,0,0.0,0.0,69,0.00,,,0.00,WUHU216HW,2013-12-28 16:16:00,
2013-12-28 10:21:00,40.3,31.0,29.91,North,0,0.0,0.0,69,0.00,,,0.00,WUHU216HW,2013-12-28 16:21:00,
2013-12-28 10:26:00,40.0,31.0,29.91,North,0,0.0,0.0,70,0.00,,,0.00,WUHU216HW,2013-12-28 16:26:00,
2013-12-28 10:31:00,39.8,30.8,29.91,North,0,0.0,0.0,70,0.00,,,0.00,WUHU216HW,2013-12-28 16:31:00,
2013-12-28 10:36:00,39.6,31.0,29.90,North,0,0.0,0.0,71,0.00,,,0.00,WUHU216HW,2013-12-28 16:36:00,
2013-12-28 10:41:00,39.8,31.2,29.90,North,0,0.0,0.0,71,0.00,,,0.00,WUHU216HW,2013-12-28 16:41:00,
2013-12-28 10:46:00,40.1,31.5,29.89,North,0,0.0,0.0,71,0.00,,,0.00,WUHU216HW,2013-12-28 16:46:00,
2013-12-28 10:51:00,40.7,31.3,29.89,North,0,0.0,0.0,69,0.00,,,0.00,WUHU216HW,2013-12-28 16:51:00,
2013-12-28 10:56:00,40.0,31.0,29.89,North,0,0.0,0.0,70,0.00,,,0.00,WUHU216HW,2013-12-28 16:56:00,
2013-12-28 11:01:00,40.1,31.1,29.89,North,0,0.0,0.0,70,0.00,,,0.00,WUHU216HW,2013-12-28 17:01:00,
2013-12-28 11:06:00,41.0,31.7,29.88,North,0,0.0,0.0,69,0.00,,,0.00,WUHU216HW,2013-12-28 17:06:00,
2013-12-28 11:11:00,41.8,31.6,29.88,North,0,0.0,0.0,67,0.00,,,0.00,WUHU216HW,2013-12-28 17:11:00,
2013-12-28 11:16:00,42.5,32.0,29.88,North,0,0.0,0.0,66,0.00,,,0.00,WUHU216HW,2013-12-28 17:16:00,
2013-12-28 11:21:00,42.5,32.0,29.87,North,0,0.0,0.0,66,0.00,,,0.00,WUHU216HW,2013-12-28 17:21:00,
2013-12-28 11:26:00,42.8,32.2,29.87,North,0,0.0,0.0,66,0.01,,,0.01,WUHU216HW,2013-12-28 17:26:00,
2013-12-28 11:31:00,43.6,32.6,29.86,North,0,0.0,0.0,65,0.01,,,0.01,WUHU216HW,2013-12-28 17:31:00,
2013-12-28 11:36:00,43.0,31.7,29.86,North,0,0.0,0.0,64,0.01,,,0.01,WUHU216HW,2013-12-28 17:36:00,
2013-12-28 11:41:00,42.8,31.9,29.86,North,0,0.0,0.0,65,0.01,,,0.01,WUHU216HW,2013-12-28 17:41:00,
2013-12-28 11:46:00,42.8,32.2,29.86,North,0,0.0,0.0,66,0.01,,,0.01,WUHU216HW,2013-12-28 17:46:00,
2013-12-28 11:51:00,43.2,32.6,29.86,North,0,0.0,0.0,66,0.01,,,0.01,WUHU216HW,2013-12-28 17:51:00,
2013-12-28 11:56:00,43.9,32.5,29.86,North,0,0.0,0.0,64,0.01,,,0.01,WUHU216HW,2013-12-28 17:56:00,
2013-12-28 12:01:00,44.3,32.5,29.85,North,0,0.0,0.0,63,0.01,,,0.01,WUHU216HW,2013-12-28 18:01:00,
2013-12-28 12:06:00,44.6,32.4,29.85,North,0,0.0,0.0,62,0.01,,,0.01,WUHU216HW,2013-12-28 18:06:00,
2013-12-28 12:11:00,44.5,32.7,29.84,North,0,0.0,0.0,63,0.02,,,0.02,WUHU216HW,2013-12-28 18:11:00,
2013-12-28 12:16:00,45.5,32.9,29.84,North,0,0.0,0.0,61,0.02,,,0.02,WUHU216HW,2013-12-28 18:16:00,
2013-12-28 12:21:00,45.7,32.7,29.84,North,0,0.0,0.0,60,0.02,,,0.03,WUHU216HW,2013-12-28 18:21:00,
2013-12-28 12:26:00,46.1,32.5,29.83,North,0,0.0,0.0,59,0.03,,,0.04,WUHU216HW,2013-12-28 18:26:00,
2013-12-28 12:31:00,46.4,32.9,29.83,North,0,0.0,0.0,59,0.03,,,0.04,WUHU216HW,2013-12-28 18:31:00,
2013-12-28 12:36:00,46.4,32.4,29.82,North,0,0.0,0.0,58,0.04,,,0.05,WUHU216HW,2013-12-28 18:36:00,
2013-12-28 12:41:00,46.6,32.6,29.82,North,0,0.0,0.0,58,0.04,,,0.05,WUHU216HW,2013-12-28 18:41:00,
2013-12-28 12:46:00,46.6,32.6,29.81,North,0,0.0,0.0,58,0.05,,,0.06,WUHU216HW,2013-12-28 18:46:00,
2013-12-28 12:51:00,46.8,32.3,29.81,North,0,0.0,0.0,57,0.05,,,0.06,WUHU216HW,2013-12-28 18:51:00,
2013-12-28 12:56:00,46.6,32.1,29.81,North,0,0.0,0.0,57,0.06,,,0.07,WUHU216HW,2013-12-28 18:56:00,
2013-12-28 13:01:00,46.4,32.0,29.81,North,0,0.0,0.0,57,0.06,,,0.07,WUHU216HW,2013-12-28 19:01:00,
2013-12-28 13:06:00,46.3,32.2,29.81,North,0,0.0,0.0,58,0.07,,,0.08,WUHU216HW,2013-12-28 19:06:00,
2013-12-28 13:11:00,46.8,32.8,29.81,North,0,0.0,0.0,58,0.06,,,0.08,WUHU216HW,2013-12-28 19:11:00,
2013-12-28 13:16:00,47.3,33.3,29.81,North,0,0.0,0.0,58,0.05,,,0.08,WUHU216HW,2013-12-28 19:16:00,
2013-12-28 13:21:00,47.2,33.1,29.81,North,0,0.0,0.0,58,0.06,,,0.09,WUHU216HW,2013-12-28 19:21:00,
2013-12-28 13:26:00,47.0,32.5,29.81,North,0,0.0,0.0,57,0.05,,,0.09,WUHU216HW,2013-12-28 19:26:00,
2013-12-28 13:31:00,47.3,33.3,29.80,North,0,0.0,0.0,58,0.05,,,0.09,WUHU216HW,2013-12-28 19:31:00,
2013-12-28 13:36:00,47.5,33.0,29.80,North,0,0.0,0.0,57,0.05,,,0.11,WUHU216HW,2013-12-28 19:36:00,
2013-12-28 13:41:00,47.5,33.0,29.80,North,0,0.0,0.0,57,0.04,,,0.11,WUHU216HW,2013-12-28 19:41:00,
2013-12-28 13:46:00,48.2,33.2,29.80,North,0,0.0,0.0,56,0.05,,,0.11,WUHU216HW,2013-12-28 19:46:00,
2013-12-28 13:51:00,49.0,33.5,29.80,North,0,0.0,0.0,55,0.05,,,0.11,WUHU216HW,2013-12-28 19:51:00,
2013-12-28 13:56:00,49.0,33.5,29.80,North,0,0.0,0.0,55,0.04,,,0.11,WUHU216HW,2013-12-28 19:56:00,
2013-12-28 14:01:00,49.1,33.1,29.80,North,0,0.0,0.0,54,0.05,,,0.13,WUHU216HW,2013-12-28 20:01:00,
2013-12-28 14:06:00,48.2,32.8,29.80,North,0,0.0,0.0,55,0.04,,,0.13,WUHU216HW,2013-12-28 20:06:00,
2013-12-28 14:11:00,47.5,33.0,29.80,North,0,0.0,0.0,57,0.04,,,0.13,WUHU216HW,2013-12-28 20:11:00,
2013-12-28 14:16:00,47.5,32.6,29.80,North,0,0.0,0.0,56,0.04,,,0.13,WUHU216HW,2013-12-28 20:16:00,
2013-12-28 14:21:00,47.0,32.5,29.80,North,0,0.0,0.0,57,0.04,,,0.13,WUHU216HW,2013-12-28 20:21:00,
2013-12-28 14:26:00,46.4,32.4,29.79,North,0,0.0,0.0,58,0.04,,,0.13,WUHU216HW,2013-12-28 20:26:00,
2013-12-28 14:31:00,46.1,32.5,29.80,North,0,0.0,0.0,59,0.04,,,0.13,WUHU216HW,2013-12-28 20:31:00,
2013-12-28 14:36:00,44.3,32.0,29.80,North,0,0.0,0.0,62,0.03,,,0.13,WUHU216HW,2013-12-28 20:36:00,
2013-12-28 14:41:00,42.8,31.5,29.79,North,0,0.0,0.0,64,0.03,,,0.13,WUHU216HW,2013-12-28 20:41:00,
2013-12-28 14:46:00,42.1,31.6,29.80,North,0,0.0,0.0,66,0.02,,,0.13,WUHU216HW,2013-12-28 20:46:00,
2013-12-28 14:51:00,42.1,32.0,29.80,North,0,0.0,0.0,67,0.02,,,0.13,WUHU216HW,2013-12-28 20:51:00,
2013-12-28 14:56:00,41.9,32.1,29.80,North,0,0.0,0.0,68,0.01,,,0.13,WUHU216HW,2013-12-28 20:56:00,
2013-12-28 15:01:00,41.8,31.6,29.80,North,0,0.0,0.0,67,0.01,,,0.13,WUHU216HW,2013-12-28 21:01:00,
2013-12-28 15:06:00,41.6,31.4,29.80,North,0,0.0,0.0,67,0.01,,,0.13,WUHU216HW,2013-12-28 21:06:00,
2013-12-28 15:11:00,41.6,31.4,29.80,North,0,0.0,0.0,67,0.01,,,0.13,WUHU216HW,2013-12-28 21:11:00,
2013-12-28 15:16:00,41.4,31.7,29.80,North,0,0.0,0.0,68,0.00,,,0.13,WUHU216HW,2013-12-28 21:16:00,
2013-12-28 15:21:00,41.0,31.7,29.80,North,0,0.0,0.0,69,0.00,,,0.13,WUHU216HW,2013-12-28 21:21:00,
2013-12-28 15:26:00,40.7,31.3,29.79,North,0,0.0,0.0,69,0.00,,,0.13,WUHU216HW,2013-12-28 21:26:00,
2013-12-28 15:31:00,40.5,31.5,29.79,North,0,0.0,0.0,70,0.00,,,0.13,WUHU216HW,2013-12-28 21:31:00,
2013-12-28 15:36:00,40.3,31.7,29.79,North,0,0.0,0.0,71,0.00,,,0.13,WUHU216HW,2013-12-28 21:36:00,
2013-12-28 15:41:00,40.3,31.7,29.80,North,0,0.0,0.0,71,0.00,,,0.13,WUHU216HW,2013-12-28 21:41:00,
2013-12-28 15:46:00,40.1,31.5,29.79,North,0,0.0,0.0,71,0.00,,,0.13,WUHU216HW,2013-12-28 21:46:00,
2013-12-28 15:51:00,40.0,31.3,29.79,North,0,0.0,0.0,71,0.00,,,0.13,WUHU216HW,2013-12-28 21:51:00,
2013-12-28 15:56:00,40.0,31.6,29.79,North,0,0.0,0.0,72,0.00,,,0.13,WUHU216HW,2013-12-28 21:56:00,
2013-12-28 16:01:00,39.8,31.4,29.79,North,0,0.0,0.0,72,0.01,,,0.15,WUHU216HW,2013-12-28 22:01:00,
2013-12-28 16:06:00,39.6,31.6,29.79,North,0,0.0,0.0,73,0.01,,,0.15,WUHU216HW,2013-12-28 22:06:00,
2013-12-28 16:11:00,39.4,31.4,29.79,North,0,0.0,0.0,73,0.01,,,0.15,WUHU216HW,2013-12-28 22:11:00,
2013-12-28 16:16:00,39.2,31.2,29.79,North,0,0.0,0.0,73,0.01,,,0.15,WUHU216HW,2013-12-28 22:16:00,
2013-12-28 16:21:00,39.1,31.4,29.79,North,0,0.0,0.0,74,0.01,,,0.15,WUHU216HW,2013-12-28 22:21:00,
2013-12-28 16:26:00,38.9,31.2,29.78,North,0,0.0,0.0,74,0.01,,,0.15,WUHU216HW,2013-12-28 22:26:00,
2013-12-28 16:31:00,38.5,31.2,29.78,North,0,0.0,0.0,75,0.01,,,0.15,WUHU216HW,2013-12-28 22:31:00,
2013-12-28 16:36:00,38.5,31.2,29.78,North,0,0.0,0.0,75,0.01,,,0.15,WUHU216HW,2013-12-28 22:36:00,
2013-12-28 16:41:00,38.3,31.4,29.78,North,0,0.0,0.0,76,0.01,,,0.15,WUHU216HW,2013-12-28 22:41:00,
2013-12-28 16:46:00,38.2,31.2,29.78,North,0,0.0,0.0,76,0.01,,,0.15,WUHU216HW,2013-12-28 22:46:00,
2013-12-28 16:50:00,38.2,31.2,29.78,North,0,0.0,0.0,76,0.01,,,0.15,WUHU216HW,2013-12-28 22:50:00,
2013-12-28 16:55:00,38.0,31.1,29.78,North,0,0.0,0.0,76,0.01,,,0.15,WUHU216HW,2013-12-28 22:55:00,
2013-12-28 17:00:00,37.8,31.2,29.78,North,0,0.0,0.0,77,0.00,,,0.15,WUHU216HW,2013-12-28 23:00:00,
2013-12-28 17:05:00,37.6,30.8,29.78,North,0,0.0,0.0,76,0.00,,,0.15,WUHU216HW,2013-12-28 23:05:00,
2013-12-28 17:10:00,37.4,30.6,29.78,North,0,0.0,0.0,76,0.00,,,0.15,WUHU216HW,2013-12-28 23:10:00,
2013-12-28 17:15:00,37.1,30.5,29.78,North,0,0.0,0.0,77,0.00,,,0.15,WUHU216HW,2013-12-28 23:15:00,
2013-12-28 17:20:00,36.9,30.7,29.78,North,0,0.0,0.0,78,0.00,,,0.15,WUHU216HW,2013-12-28 23:20:00,
2013-12-28 17:25:00,36.7,30.5,29.78,North,0,0.0,0.0,78,0.00,,,0.15,WUHU216HW,2013-12-28 23:25:00,
2013-12-28 17:30:00,36.7,30.8,29.78,North,0,0.0,0.0,79,0.00,,,0.15,WUHU216HW,2013-12-28 23:30:00,
2013-12-28 17:35:00,36.7,30.8,29.77,North,0,0.0,0.0,79,0.00,,,0.15,WUHU216HW,2013-12-28 23:35:00,
2013-12-28 17:40:00,36.5,30.6,29.77,North,0,0.0,0.0,79,0.00,,,0.15,WUHU216HW,2013-12-28 23:40:00,
2013-12-28 17:45:00,36.4,30.4,29.77,North,0,0.0,0.0,79,0.00,,,0.15,WUHU216HW,2013-12-28 23:45:00,
2013-12-28 17:50:00,36.2,30.6,29.77,North,0,0.0,0.0,80,0.00,,,0.15,WUHU216HW,2013-12-28 23:50:00,
2013-12-28 17:55:00,36.0,30.4,29.76,North,0,0.0,0.0,80,0.00,,,0.15,WUHU216HW,2013-12-28 23:55:00,
2013-12-28 18:00:00,36.0,30.4,29.76,North,0,0.0,0.0,80,0.00,,,0.15,WUHU216HW,2013-12-29 00:00:00,
2013-12-28 18:05:00,35.8,30.2,29.76,North,0,0.0,0.0,80,0.00,,,0.15,WUHU216HW,2013-12-29 00:05:00,
2013-12-28 18:10:00,35.8,30.2,29.76,North,0,0.0,0.0,80,0.00,,,0.15,WUHU216HW,2013-12-29 00:10:00,
2013-12-28 18:15:00,35.6,30.3,29.76,North,0,0.0,0.0,81,0.00,,,0.15,WUHU216HW,2013-12-29 00:15:00,
2013-12-28 18:20:00,35.6,30.3,29.76,North,0,0.0,0.0,81,0.00,,,0.15,WUHU216HW,2013-12-29 00:20:00,
2013-12-28 18:25:00,35.6,30.3,29.76,North,0,0.0,0.0,81,0.00,,,0.15,WUHU216HW,2013-12-29 00:25:00,
2013-12-28 18:30:00,35.6,30.3,29.76,North,0,0.0,0.0,81,0.00,,,0.15,WUHU216HW,2013-12-29 00:30:00,
2013-12-28 18:35:00,35.5,30.2,29.76,North,0,0.0,0.0,81,0.00,,,0.15,WUHU216HW,2013-12-29 00:35:00,
2013-12-28 18:40:00,35.5,30.2,29.76,North,0,0.0,0.0,81,0.00,,,0.15,WUHU216HW,2013-12-29 00:40:00,
2013-12-28 18:45:00,35.3,30.0,29.76,North,0,0.0,0.0,81,0.00,,,0.15,WUHU216HW,2013-12-29 00:45:00,
2013-12-28 18:50:00,35.3,30.2,29.75,North,0,0.0,0.0,82,0.00,,,0.15,WUHU216HW,2013-12-29 00:50:00,
2013-12-28 18:55:00,35.3,30.0,29.75,North,0,0.0,0.0,81,0.00,,,0.15,WUHU216HW,2013-12-29 00:55:00,
2013-12-28 19:00:00,35.3,30.2,29.76,North,0,0.0,0.0,82,0.00,,,0.15,WUHU216HW,2013-12-29 01:00:00,
2013-12-28 19:05:00,35.5,30.2,29.76,North,0,0.0,0.0,81,0.00,,,0.15,WUHU216HW,2013-12-29 01:05:00,
2013-12-28 19:10:00,35.5,30.2,29.76,North,0,0.0,0.0,81,0.00,,,0.15,WUHU216HW,2013-12-29 01:10:00,
2013-12-28 19:15:00,35.6,30.3,29.75,North,0,0.0,0.0,81,0.00,,,0.15,WUHU216HW,2013-12-29 01:15:00,
2013-12-28 19:20:00,35.6,30.3,29.75,North,0,0.0,0.0,81,0.00,,,0.15,WUHU216HW,2013-12-29 01:20:00,
2013-12-28 19:25:00,35.3,29.7,29.75,North,0,0.0,0.0,80,0.00,,,0.15,WUHU216HW,2013-12-29 01:25:00,
2013-12-28 19:30:00,35.1,29.8,29.75,North,0,0.0,0.0,81,0.00,,,0.15,WUHU216HW,2013-12-29 01:30:00,
2013-12-28 19:35:00,35.1,29.8,29.75,North,0,0.0,0.0,81,0.00,,,0.15,WUHU216HW,2013-12-29 01:35:00,
2013-12-28 19:40:00,35.3,30.0,29.76,North,0,0.0,0.0,81,0.00,,,0.15,WUHU216HW,2013-12-29 01:40:00,
2013-12-28 19:45:00,35.6,30.3,29.76,North,0,0.0,0.0,81,0.00,,,0.15,WUHU216HW,2013-12-29 01:45:00,
2013-12-28 19:50:00,35.5,30.2,29.76,North,0,0.0,0.0,81,0.00,,,0.15,WUHU216HW,2013-12-29 01:50:00,
2013-12-28 19:55:00,35.6,30.3,29.75,North,0,0.0,0.0,81,0.00,,,0.15,WUHU216HW,2013-12-29 01:55:00,
2013-12-28 20:00:00,35.6,30.1,29.75,North,0,0.0,0.0,80,0.00,,,0.15,WUHU216HW,2013-12-29 02:00:00,
2013-12-28 20:05:00,35.8,30.2,29.74,North,0,0.0,0.0,80,0.00,,,0.15,WUHU216HW,2013-12-29 02:05:00,
2013-12-28 20:10:00,36.2,30.6,29.74,North,0,0.0,0.0,80,0.00,,,0.15,WUHU216HW,2013-12-29 02:10:00,
2013-12-28 20:15:00,36.2,30.6,29.74,North,0,0.0,0.0,80,0.00,,,0.15,WUHU216HW,2013-12-29 02:15:00,
2013-12-28 20:20:00,36.4,30.8,29.74,North,0,0.0,0.0,80,0.00,,,0.15,WUHU216HW,2013-12-29 02:20:00,
2013-12-28 20:25:00,36.5,30.6,29.74,North,0,0.0,0.0,79,0.00,,,0.15,WUHU216HW,2013-12-29 02:25:00,
2013-12-28 20:30:00,36.7,30.8,29.75,North,0,0.0,0.0,79,0.00,,,0.15,WUHU216HW,2013-12-29 02:30:00,
2013-12-28 20:35:00,36.9,30.7,29.75,North,0,0.0,0.0,78,0.00,,,0.15,WUHU216HW,2013-12-29 02:35:00,
2013-12-28 20:40:00,37.1,30.9,29.75,North,0,0.0,0.0,78,0.00,,,0.15,WUHU216HW,2013-12-29 02:40:00,
2013-12-28 20:45:00,37.3,30.7,29.75,North,0,0.0,0.0,77,0.00,,,0.15,WUHU216HW,2013-12-29 02:45:00,
2013-12-28 20:50:00,37.4,30.9,29.75,North,0,0.0,0.0,77,0.00,,,0.15,WUHU216HW,2013-12-29 02:50:00,
2013-12-28 20:55:00,37.4,30.9,29.75,North,0,0.0,0.0,77,0.00,,,0.15,WUHU216HW,2013-12-29 02:55:00,
2013-12-28 21:00:00,37.6,30.8,29.75,North,0,0.0,0.0,76,0.00,,,0.15,WUHU216HW,2013-12-29 03:00:00,
2013-12-28 21:05:00,37.4,30.6,29.75,North,0,0.0,0.0,76,0.00,,,0.15,WUHU216HW,2013-12-29 03:05:00,
2013-12-28 21:10:00,37.4,30.9,29.75,North,0,0.0,0.0,77,0.00,,,0.15,WUHU216HW,2013-12-29 03:10:00,
2013-12-28 21:15:00,37.4,30.9,29.74,North,0,0.0,0.0,77,0.00,,,0.15,WUHU216HW,2013-12-29 03:15:00,
2013-12-28 21:20:00,37.3,30.7,29.74,North,0,0.0,0.0,77,0.00,,,0.15,WUHU216HW,2013-12-29 03:20:00,
2013-12-28 21:25:00,37.3,30.7,29.74,North,0,0.0,0.0,77,0.00,,,0.15,WUHU216HW,2013-12-29 03:25:00,
2013-12-28 21:30:00,37.4,30.6,29.74,North,0,0.0,0.0,76,0.00,,,0.15,WUHU216HW,2013-12-29 03:30:00,
2013-12-28 21:35:00,37.6,30.8,29.74,North,0,0.0,0.0,76,0.00,,,0.15,WUHU216HW,2013-12-29 03:35:00,
2013-12-28 21:40:00,37.6,30.8,29.74,North,0,0.0,0.0,76,0.00,,,0.15,WUHU216HW,2013-12-29 03:40:00,
2013-12-28 21:45:00,37.6,30.8,29.73,North,0,0.0,0.0,76,0.00,,,0.15,WUHU216HW,2013-12-29 03:45:00,
2013-12-28 21:50:00,37.8,31.2,29.73,North,0,0.0,0.0,77,0.00,,,0.15,WUHU216HW,2013-12-29 03:50:00,
2013-12-28 21:55:00,38.0,31.1,29.73,North,0,0.0,0.0,76,0.00,,,0.15,WUHU216HW,2013-12-29 03:55:00,
2013-12-28 22:00:00,37.8,30.9,29.73,North,0,0.0,0.0,76,0.00,,,0.15,WUHU216HW,2013-12-29 04:00:00,
2013-12-28 22:05:00,38.0,31.1,29.72,North,0,0.0,0.0,76,0.00,,,0.15,WUHU216HW,2013-12-29 04:05:00,
2013-12-28 22:10:00,38.0,31.1,29.72,North,0,0.0,0.0,76,0.00,,,0.15,WUHU216HW,2013-12-29 04:10:00,
2013-12-28 22:15:00,38.0,31.1,29.72,North,0,0.0,0.0,76,0.00,,,0.15,WUHU216HW,2013-12-29 04:15:00,
2013-12-28 22:20:00,37.8,30.9,29.72,North,0,0.0,0.0,76,0.00,,,0.15,WUHU216HW,2013-12-29 04:20:00,
2013-12-28 22:25:00,37.8,30.9,29.71,North,0,0.0,0.0,76,0.00,,,0.15,WUHU216HW,2013-12-29 04:25:00,
2013-12-28 22:30:00,37.8,30.9,29.71,North,0,0.0,0.0,76,0.00,,,0.15,WUHU216HW,2013-12-29 04:30:00,
2013-12-28 22:35:00,37.8,30.9,29.71,North,0,0.0,0.0,76,0.00,,,0.15,WUHU216HW,2013-12-29 04:35:00,
2013-12-28 22:40:00,37.8,30.6,29.71,North,0,0.0,0.0,75,0.00,,,0.15,WUHU216HW,2013-12-29 04:40:00,
2013-12-28 22:45:00,38.2,31.0,29.71,North,0,0.0,0.0,75,0.00,,,0.15,WUHU216HW,2013-12-29 04:45:00,
2013-12-28 22:50:00,38.0,30.8,29.71,North,0,0.0,0.0,75,0.00,,,0.15,WUHU216HW,2013-12-29 04:50:00,
2013-12-28 22:55:00,37.8,30.6,29.71,North,0,0.0,0.0,75,0.00,,,0.15,WUHU216HW,2013-12-29 04:55:00,
2013-12-28 23:00:00,37.8,30.6,29.71,North,0,0.0,0.0,75,0.00,,,0.15,WUHU216HW,2013-12-29 05:00:00,
2013-12-28 23:01:00,37.8,30.9,29.71,North,0,0.0,0.0,76,0.00,,,0.15,WUHU216HW,2013-12-29 05:01:00,
2013-12-28 23:06:00,37.6,30.8,29.71,North,0,0.0,0.0,76,0.00,,,0.15,WUHU216HW,2013-12-29 05:06:00,
2013-12-28 23:11:00,37.6,30.8,29.71,North,0,0.0,0.0,76,0.00,,,0.15,WUHU216HW,2013-12-29 05:11:00,
2013-12-28 23:16:00,37.4,30.6,29.71,North,0,0.0,0.0,76,0.00,,,0.15,WUHU216HW,2013-12-29 05:16:00,
2013-12-28 23:21:00,37.4,30.6,29.71,North,0,0.0,0.0,76,0.00,,,0.15,WUHU216HW,2013-12-29 05:21:00,
2013-12-28 23:26:00,37.6,30.8,29.71,North,0,0.0,0.0,76,0.00,,,0.15,WUHU216HW,2013-12-29 05:26:00,
2013-12-28 23:31:00,37.6,30.8,29.71,North,0,0.0,0.0,76,0.00,,,0.15,WUHU216HW,2013-12-29 05:31:00,
2013-12-28 23:36:00,37.8,30.6,29.70,North,0,0.0,0.0,75,0.00,,,0.15,WUHU216HW,2013-12-29 05:36:00,
2013-12-28 23:41:00,37.8,30.6,29.70,North,0,0.0,0.0,75,0.00,,,0.15,WUHU216HW,2013-12-29 05:41:00,
2013-12-28 23:46:00,37.8,30.6,29.69,North,0,0.0,0.0,75,0.00,,,0.15,WUHU216HW,2013-12-29 05:46:00,
2013-12-28 23:51:00,37.8,30.2,29.69,North,0,0.0,0.0,74,0.00,,,0.15,WUHU216HW,2013-12-29 05:51:00,
2013-12-28 23:56:00,38.0,30.4,29.69,North,0,0.0,0.0,74,0.00,,,0.15,WUHU216HW,2013-12-29 05:56:00,